Time;durP1;ratioP1;P1;durP2;ratioP2;P2;SDS_P1;SDS_P2;PMS_P1;PMS_P2;Temp;Humidity;BMP_temperature;BMP_pressure;BME280_temperature;BME280_humidity;BME280_pressure;Samples;Min_cycle;Max_cycle;Signal;HPM_P1;HPM_P2
2023/12/11 00:02:24;;;;;;;;;0.75;0.00;;;;;-146.67;76.90;74318.25;5119145;27;40771;-77
2023/12/11 00:04:49;;;;;;;;;0.75;0.50;;;;;-146.67;75.54;74320.22;5120304;27;38358;-77
2023/12/11 00:07:14;;;;;;;;;2.75;0.25;;;;;-146.67;76.14;74320.22;5119366;27;38504;-77
2023/12/11 00:09:40;;;;;;;;;1.00;0.00;;;;;-146.67;75.69;74322.22;5119313;27;37944;-77
2023/12/11 00:12:06;;;;;;;;;3.00;1.00;;;;;-146.67;76.23;74320.22;5119241;27;41182;-77
2023/12/11 00:14:31;;;;;;;;;0.25;0.25;;;;;-146.67;75.33;74320.22;5120397;27;38365;-77
2023/12/11 00:16:56;;;;;;;;;2.00;1.50;;;;;-146.67;75.85;74328.22;5136549;27;38291;-77
2023/12/11 00:19:22;;;;;;;;;2.00;1.00;;;;;-146.67;76.32;74322.22;5119962;27;38398;-77
2023/12/11 00:21:47;;;;;;;;;1.00;0.00;;;;;-146.67;75.81;74318.25;5119696;27;39476;-77
2023/12/11 00:24:13;;;;;;;;;3.75;2.75;;;;;-146.67;74.53;74336.19;5136524;27;38364;-77
2023/12/11 00:26:39;;;;;;;;;3.00;2.00;;;;;-146.67;75.33;74326.22;5119744;27;38302;-77
2023/12/11 00:29:05;;;;;;;;;5.25;1.75;;;;;-146.67;74.96;74318.25;5120171;27;38644;-77
2023/12/11 00:31:30;;;;;;;;;2.75;2.50;;;;;-146.67;74.45;74326.22;5120180;27;38083;-77
2023/12/11 00:33:56;;;;;;;;;2.00;0.25;;;;;-146.67;74.76;74334.22;5135882;27;38507;-77
2023/12/11 00:36:21;;;;;;;;;1.75;1.75;;;;;-146.67;75.04;74334.22;5119210;27;38367;-77
2023/12/11 00:38:47;;;;;;;;;2.50;1.00;;;;;-146.67;75.00;74328.22;5119790;27;38465;-77
2023/12/11 00:41:15;;;;;;;;;2.00;1.00;;;;;-146.67;74.66;74332.22;5119866;27;38507;-77
2023/12/11 00:43:41;;;;;;;;;1.00;1.00;;;;;-146.67;74.99;74328.22;5120118;27;38318;-77
2023/12/11 00:46:06;;;;;;;;;4.00;0.75;;;;;-146.67;74.02;74342.19;5118735;27;38480;-77
2023/12/11 00:48:31;;;;;;;;;5.00;2.00;;;;;-146.67;74.25;74336.19;5119983;27;38272;-77
2023/12/11 00:50:57;;;;;;;;;0.25;0.25;;;;;-146.67;74.12;74342.19;5119238;27;37954;-77
2023/12/11 00:53:22;;;;;;;;;2.50;1.50;;;;;-146.67;74.19;74350.19;5118829;27;37800;-77
2023/12/11 00:55:48;;;;;;;;;1.75;1.00;;;;;-146.67;73.78;74356.16;5118293;27;38327;-77
2023/12/11 00:58:13;;;;;;;;;2.00;1.00;;;;;-146.67;73.77;74338.19;5120021;27;38414;-77
2023/12/11 01:00:38;;;;;;;;;3.50;1.25;;;;;-146.67;73.62;74334.22;5117950;27;39692;-78
2023/12/11 01:03:04;;;;;;;;;2.00;0.75;;;;;-146.67;73.41;74346.19;5119938;27;38341;-77
2023/12/11 01:05:30;;;;;;;;;4.00;1.00;;;;;-146.67;72.93;74344.19;5123067;27;38473;-77
2023/12/11 01:07:56;;;;;;;;;1.00;0.00;;;;;-146.67;73.25;74338.19;5123595;27;38183;-77
2023/12/11 01:10:21;;;;;;;;;4.25;1.00;;;;;-146.67;72.72;74346.19;5121570;27;40016;-76
2023/12/11 01:12:47;;;;;;;;;0.25;0.25;;;;;-146.67;72.17;74366.16;5123164;27;37654;-77
2023/12/11 01:15:12;;;;;;;;;2.75;0.75;;;;;-146.67;71.88;74372.13;5123489;27;38239;-77
2023/12/11 01:17:38;;;;;;;;;8.00;1.00;;;;;-146.67;71.90;74362.16;5123437;27;38485;-77
2023/12/11 01:20:03;;;;;;;;;0.75;0.75;;;;;-146.67;71.71;74372.13;5121098;27;39585;-77
2023/12/11 01:22:29;;;;;;;;;2.00;1.00;;;;;-146.67;71.75;74358.16;5123080;27;38350;-77
2023/12/11 01:24:54;;;;;;;;;4.00;2.25;;;;;-146.67;71.44;74378.13;5139004;27;37709;-78
2023/12/11 01:27:20;;;;;;;;;3.00;1.00;;;;;-146.67;71.12;74398.09;5123203;27;38322;-78
2023/12/11 01:29:45;;;;;;;;;1.00;1.00;;;;;-146.67;71.29;74392.09;5121234;27;39690;-77
2023/12/11 01:32:10;;;;;;;;;2.25;1.00;;;;;-146.67;70.91;74396.09;5122837;27;38410;-77
2023/12/11 01:34:36;;;;;;;;;4.25;1.75;;;;;-146.67;71.20;74382.13;5123205;27;38333;-78
2023/12/11 01:37:01;;;;;;;;;2.75;2.00;;;;;-146.67;71.36;74360.16;5121888;27;38308;-78
2023/12/11 01:39:26;;;;;;;;;2.50;1.25;;;;;-146.67;70.60;74354.16;5121556;27;41182;-78
2023/12/11 01:41:52;;;;;;;;;2.50;1.50;;;;;-146.67;70.49;74368.16;5123086;27;38395;-78
2023/12/11 01:44:17;;;;;;;;;4.50;2.75;;;;;-146.67;70.06;74370.16;5123030;27;38251;-77
2023/12/11 01:46:44;;;;;;;;;3.50;1.50;;;;;-146.67;70.66;74364.16;5122466;27;38316;-77
2023/12/11 01:49:09;;;;;;;;;2.75;1.00;;;;;-146.67;70.16;74360.16;5120513;27;39694;-77
2023/12/11 01:51:36;;;;;;;;;6.25;2.00;;;;;-146.67;70.00;74364.16;5123055;27;38365;-78
2023/12/11 01:54:02;;;;;;;;;4.00;2.75;;;;;-146.67;70.19;74364.16;5122019;27;38393;-77
2023/12/11 01:56:27;;;;;;;;;1.00;1.00;;;;;-146.67;70.11;74376.13;5123194;27;38287;-77
2023/12/11 01:58:52;;;;;;;;;1.75;1.00;;;;;-146.67;69.21;74368.16;5122457;27;38917;-78
2023/12/11 02:01:23;;;;;;;;;1.00;1.00;;;;;-146.67;69.96;74374.13;5120907;27;38010;-78
2023/12/11 02:03:49;;;;;;;;;2.50;1.00;;;;;-146.67;69.14;74360.16;5121463;27;37784;-77
2023/12/11 02:06:15;;;;;;;;;3.50;1.25;;;;;-146.67;69.74;74356.16;5122491;27;37776;-77
2023/12/11 02:08:41;;;;;;;;;1.25;1.00;;;;;-146.67;69.38;74356.16;5122377;27;38049;-77
2023/12/11 02:11:06;;;;;;;;;2.00;2.00;;;;;-146.67;69.46;74350.19;5121121;27;37883;-78
2023/12/11 02:13:33;;;;;;;;;2.00;0.00;;;;;-146.67;69.20;74342.19;5122687;27;37719;-77
2023/12/11 02:15:59;;;;;;;;;1.25;1.25;;;;;-146.67;69.59;74346.19;5120826;27;37943;-77
2023/12/11 02:18:24;;;;;;;;;7.00;2.00;;;;;-146.67;69.26;74338.19;5122181;27;37894;-77
2023/12/11 02:20:50;;;;;;;;;1.00;1.00;;;;;-146.67;68.94;74342.19;5122049;27;38567;-78
2023/12/11 02:23:40;;;;;;;;;8.50;1.25;;;;;-146.67;68.98;74362.16;5122118;27;38621;-77
2023/12/11 02:26:17;;;;;;;;;7.50;1.75;;;;;-146.67;69.15;74354.16;5120842;27;38328;-77
2023/12/11 02:28:43;;;;;;;;;2.50;1.25;;;;;-146.67;69.64;74344.19;5121671;27;38263;-77
2023/12/11 02:31:08;;;;;;;;;2.00;1.00;;;;;-146.67;68.77;74340.19;5122025;27;38260;-78
2023/12/11 02:33:34;;;;;;;;;8.75;1.00;;;;;-146.67;69.06;74336.19;5122207;27;38410;-78
2023/12/11 02:36:00;;;;;;;;;4.75;1.50;;;;;-146.67;69.29;74346.19;5122596;27;38293;-77
2023/12/11 02:38:25;;;;;;;;;4.00;2.25;;;;;-146.67;69.13;74354.16;5121931;27;37992;-78
2023/12/11 02:40:51;;;;;;;;;7.75;0.25;;;;;-146.67;69.40;74340.19;5122155;27;37703;-78
2023/12/11 02:43:16;;;;;;;;;9.50;2.50;;;;;-146.67;68.85;74334.22;5120498;27;38846;-77
2023/12/11 02:45:42;;;;;;;;;5.75;3.00;;;;;-146.67;69.24;74308.25;5121801;27;37706;-77
2023/12/11 02:48:08;;;;;;;;;9.00;1.00;;;;;-146.67;69.43;74324.22;5121714;27;38304;-78
2023/12/11 02:50:33;;;;;;;;;2.75;1.00;;;;;-146.67;68.83;74328.22;5121416;27;38645;-78
2023/12/11 02:53:00;;;;;;;;;5.50;1.75;;;;;-146.67;68.75;74336.19;5120816;27;38409;-77
2023/12/11 02:55:26;;;;;;;;;4.00;1.75;;;;;-146.67;68.08;74324.22;5120517;27;38615;-77
2023/12/11 02:58:02;;;;;;;;;6.50;3.00;;;;;-146.67;68.61;74310.25;5121537;27;38331;-77
2023/12/11 03:00:29;;;;;;;;;4.00;2.00;;;;;-146.67;68.37;74304.25;5121395;27;37957;-77
2023/12/11 03:02:55;;;;;;;;;1.00;1.00;;;;;-146.67;68.29;74302.25;5120307;27;38315;-77
2023/12/11 03:05:20;;;;;;;;;3.00;1.75;;;;;-146.67;68.20;74306.25;5120128;27;38522;-78
2023/12/11 03:07:46;;;;;;;;;1.00;1.00;;;;;-146.67;68.31;74310.25;5121605;27;38490;-77
2023/12/11 03:10:12;;;;;;;;;0.00;0.00;;;;;-146.67;67.58;74312.25;5121767;27;38277;-77
2023/12/11 03:12:38;;;;;;;;;2.25;1.75;;;;;-146.67;67.92;74312.25;5121556;27;38222;-77
2023/12/11 03:15:05;;;;;;;;;2.25;0.75;;;;;-146.67;68.40;74290.28;5121390;27;38165;-77
2023/12/11 03:17:30;;;;;;;;;3.50;2.00;;;;;-146.67;67.61;74290.28;5121002;27;38242;-77
2023/12/11 03:19:56;;;;;;;;;3.00;1.00;;;;;-146.67;67.09;74270.31;5121184;27;38534;-78
2023/12/11 03:22:24;;;;;;;;;3.00;2.25;;;;;-146.67;66.95;74276.31;5121684;27;37776;-78
2023/12/11 03:24:50;;;;;;;;;6.00;1.00;;;;;-146.67;67.12;74276.31;5121599;27;38392;-78
2023/12/11 03:27:16;;;;;;;;;6.50;2.00;;;;;-146.67;67.69;74254.34;5119231;27;39388;-77
2023/12/11 03:29:42;;;;;;;;;2.25;1.75;;;;;-146.67;67.28;74256.34;5120590;27;38448;-77
2023/12/11 03:32:07;;;;;;;;;3.00;2.00;;;;;-146.67;67.05;74246.38;5121450;27;37856;-77
2023/12/11 03:34:33;;;;;;;;;5.00;2.75;;;;;-146.67;66.79;74236.38;5121951;27;38307;-77
2023/12/11 03:36:58;;;;;;;;;2.50;2.50;;;;;-146.67;66.55;74246.38;5121079;27;38333;-77
2023/12/11 03:39:25;;;;;;;;;5.25;3.50;;;;;-146.67;66.30;74264.34;5137265;27;38346;-78
2023/12/11 03:41:50;;;;;;;;;6.50;1.25;;;;;-146.67;66.34;74270.31;5120611;27;38313;-77
2023/12/11 03:44:16;;;;;;;;;6.00;2.00;;;;;-146.67;66.05;74252.34;5119548;27;38451;-77
2023/12/11 03:46:41;;;;;;;;;3.50;1.00;;;;;-146.67;66.33;74214.44;5120269;27;38377;-77
2023/12/11 03:49:07;;;;;;;;;2.00;1.00;;;;;-146.67;65.76;74236.38;5120697;27;38204;-77
2023/12/11 03:51:32;;;;;;;;;7.50;2.00;;;;;-146.67;66.72;74208.44;5123090;27;38197;-77
2023/12/11 03:54:00;;;;;;;;;4.00;2.75;;;;;-146.67;66.08;74234.38;5140584;27;38054;-77
2023/12/11 03:56:26;;;;;;;;;6.75;2.50;;;;;-146.67;66.05;74228.41;5141564;27;38361;-78
2023/12/11 03:58:51;;;;;;;;;4.00;2.50;;;;;-146.67;65.87;74232.41;5122970;27;38279;-78
2023/12/11 04:01:17;;;;;;;;;6.75;1.25;;;;;-146.67;65.89;74216.44;5119525;27;38408;-78
2023/12/11 04:03:42;;;;;;;;;7.75;2.50;;;;;-146.67;65.65;74238.38;5121042;27;38272;-77
2023/12/11 04:06:07;;;;;;;;;9.75;2.00;;;;;-146.67;65.67;74234.38;5120503;27;38301;-78
2023/12/11 04:08:33;;;;;;;;;2.75;2.75;;;;;-146.67;65.32;74224.41;5120836;27;38430;-77
2023/12/11 04:10:58;;;;;;;;;2.25;0.25;;;;;-146.67;65.40;74230.41;5120277;27;37697;-77
2023/12/11 04:13:24;;;;;;;;;2.00;1.00;;;;;-146.67;65.54;74216.44;5122315;27;38428;-77
2023/12/11 04:15:49;;;;;;;;;4.75;3.25;;;;;-146.67;65.29;74220.41;5128049;27;38412;-78
2023/12/11 04:18:15;;;;;;;;;3.75;2.00;;;;;-146.67;65.87;74212.44;5119850;27;37987;-77
2023/12/11 04:20:40;;;;;;;;;2.25;0.50;;;;;-146.67;65.01;74220.41;5124296;27;38527;-78
2023/12/11 04:23:05;;;;;;;;;5.25;2.00;;;;;-146.67;65.27;74210.44;5121372;27;38266;-77
2023/12/11 04:25:31;;;;;;;;;5.50;2.00;;;;;-146.67;64.98;74218.41;5135141;27;38308;-78
2023/12/11 04:27:56;;;;;;;;;2.50;1.00;;;;;-146.67;65.33;74218.41;5127156;27;61294;-77
2023/12/11 04:30:22;;;;;;;;;7.25;3.00;;;;;-146.67;64.70;74220.41;5105583;27;62271;-78
2023/12/11 04:32:47;;;;;;;;;8.00;2.00;;;;;-146.67;65.24;74210.44;5102485;27;61683;-77
2023/12/11 04:35:12;;;;;;;;;6.75;2.00;;;;;-146.67;65.42;74186.47;5119771;27;61179;-77
2023/12/11 04:37:38;;;;;;;;;1.25;1.00;;;;;-146.67;65.36;74188.47;5152302;27;61097;-78
2023/12/11 04:40:05;;;;;;;;;3.00;3.00;;;;;-146.67;64.88;74202.44;5143405;27;61378;-78
2023/12/11 04:42:30;;;;;;;;;5.50;2.00;;;;;-146.67;65.26;74202.44;5131869;27;61777;-78
2023/12/11 04:44:56;;;;;;;;;2.50;1.00;;;;;-146.67;65.34;74178.50;5132823;27;62820;-77
2023/12/11 04:47:21;;;;;;;;;4.00;1.50;;;;;-146.67;64.97;74170.50;5110249;27;61733;-77
2023/12/11 04:49:46;;;;;;;;;5.50;2.00;;;;;-146.67;64.32;74166.50;5104456;27;61766;-77
2023/12/11 04:52:12;;;;;;;;;1.00;0.50;;;;;-146.67;64.51;74164.53;5107052;27;61791;-78
2023/12/11 04:54:37;;;;;;;;;2.50;1.00;;;;;-146.67;64.39;74160.53;5104860;27;61985;-77
2023/12/11 04:57:03;;;;;;;;;1.75;1.75;;;;;-146.67;65.08;74184.47;5104960;27;62262;-77
2023/12/11 04:59:28;;;;;;;;;2.50;2.50;;;;;-146.67;64.88;74202.44;5121769;27;61951;-78
2023/12/11 05:01:54;;;;;;;;;6.75;1.75;;;;;-146.67;64.72;74206.44;5106007;27;62060;-77
2023/12/11 05:04:19;;;;;;;;;1.00;1.00;;;;;-146.67;64.96;74206.44;5105031;27;61859;-77
2023/12/11 05:06:44;;;;;;;;;8.00;1.75;;;;;-146.67;64.86;74202.44;5111066;27;61640;-78
2023/12/11 05:09:10;;;;;;;;;4.25;1.25;;;;;-146.67;64.75;74192.47;5126862;27;61441;-77
2023/12/11 05:11:35;;;;;;;;;4.00;2.25;;;;;-146.67;64.47;74186.47;5128533;27;62157;-77
2023/12/11 05:14:01;;;;;;;;;2.00;2.00;;;;;-146.67;64.64;74204.44;5127293;27;63538;-78
2023/12/11 05:16:26;;;;;;;;;7.00;1.50;;;;;-146.67;64.28;74202.44;5129547;27;61839;-78
2023/12/11 05:18:52;;;;;;;;;6.50;2.00;;;;;-146.67;64.08;74200.44;5124425;27;61839;-77
2023/12/11 05:21:17;;;;;;;;;4.75;1.75;;;;;-146.67;64.59;74188.47;5125978;27;61708;-78
2023/12/11 05:23:42;;;;;;;;;7.00;3.00;;;;;-146.67;64.24;74192.47;5122252;27;62148;-77
2023/12/11 05:26:08;;;;;;;;;9.25;1.00;;;;;-146.67;64.26;74186.47;5104957;27;61635;-77
2023/12/11 05:28:33;;;;;;;;;3.00;2.50;;;;;-146.67;64.10;74188.47;5103760;27;62306;-77
2023/12/11 05:30:59;;;;;;;;;3.00;1.25;;;;;-146.67;64.12;74196.47;5107171;27;61515;-77
2023/12/11 05:33:24;;;;;;;;;10.00;3.25;;;;;-146.67;63.60;74206.44;5109763;27;61818;-77
2023/12/11 05:35:49;;;;;;;;;6.00;3.00;;;;;-146.67;63.93;74208.44;5124578;27;62052;-78
2023/12/11 05:38:15;;;;;;;;;4.00;2.00;;;;;-146.67;63.86;74198.47;5121160;27;61838;-77
2023/12/11 05:40:40;;;;;;;;;3.25;3.25;;;;;-146.67;64.07;74196.47;5105043;27;61678;-77
2023/12/11 05:43:06;;;;;;;;;5.00;2.00;;;;;-146.67;64.17;74202.44;5106042;27;62989;-77
2023/12/11 05:45:31;;;;;;;;;4.00;2.00;;;;;-146.67;63.87;74188.47;5122251;27;45088;-78
2023/12/11 05:47:56;;;;;;;;;7.75;1.25;;;;;-146.67;64.22;74202.44;5121579;27;38398;-77
2023/12/11 05:50:22;;;;;;;;;4.75;1.00;;;;;-146.67;64.33;74208.44;5123999;27;38241;-78
2023/12/11 05:52:47;;;;;;;;;3.50;2.50;;;;;-146.67;64.47;74206.44;5121912;27;38564;-77
2023/12/11 05:55:13;;;;;;;;;5.50;2.00;;;;;-146.67;64.26;74216.44;5141306;27;37683;-78
2023/12/11 05:57:39;;;;;;;;;9.00;2.75;;;;;-146.67;63.90;74232.41;5125053;27;38290;-77
2023/12/11 06:00:05;;;;;;;;;4.25;2.50;;;;;-146.67;64.17;74228.41;5123056;27;38319;-78
2023/12/11 06:02:31;;;;;;;;;4.50;1.50;;;;;-146.67;64.12;74222.41;5120868;27;40064;-78
2023/12/11 06:04:56;;;;;;;;;2.00;1.50;;;;;-146.67;63.67;74226.41;5120950;27;38252;-77
2023/12/11 06:07:21;;;;;;;;;7.00;2.00;;;;;-146.67;64.24;74222.41;5122196;27;38315;-77
2023/12/11 06:09:47;;;;;;;;;4.00;2.00;;;;;-146.67;64.42;74226.41;5122732;27;38422;-78
2023/12/11 06:12:12;;;;;;;;;3.00;2.75;;;;;-146.67;63.96;74228.41;5123636;27;38245;-76
2023/12/11 06:14:41;;;;;;;;;7.00;2.00;;;;;-146.67;63.93;74224.41;5132148;27;38455;-76
2023/12/11 06:17:07;;;;;;;;;5.00;2.50;;;;;-146.67;64.14;74230.41;5142419;27;38393;-77
2023/12/11 06:19:32;;;;;;;;;4.50;3.50;;;;;-146.67;64.15;74228.41;5127755;27;38758;-77
2023/12/11 06:21:58;;;;;;;;;4.25;1.75;;;;;-146.67;64.03;74244.38;5137620;27;38339;-77
2023/12/11 06:24:23;;;;;;;;;7.25;5.25;;;;;-146.67;64.28;74246.38;5145232;27;37711;-77
2023/12/11 06:26:49;;;;;;;;;4.50;2.75;;;;;-146.67;63.86;74236.38;5133560;27;38350;-76
2023/12/11 06:29:14;;;;;;;;;8.00;1.50;;;;;-146.67;63.98;74230.41;5140439;27;37875;-76
2023/12/11 06:31:40;;;;;;;;;4.50;3.50;;;;;-146.67;63.60;74240.38;5161341;27;24512;-76
2023/12/11 06:34:05;;;;;;;;;3.00;1.25;;;;;-146.67;63.42;74244.38;5142254;27;61048;-77
2023/12/11 06:36:36;;;;;;;;;3.75;1.25;;;;;-146.67;63.68;74248.38;5136722;27;44774;-77
2023/12/11 06:39:02;;;;;;;;;3.50;3.50;;;;;-146.67;63.19;74254.34;5132016;27;38530;-76
2023/12/11 06:41:28;;;;;;;;;7.00;3.75;;;;;-146.67;62.88;74256.34;5126732;27;38458;-78
2023/12/11 06:43:54;;;;;;;;;5.00;2.25;;;;;-146.67;63.17;74256.34;5121454;27;38581;-77
2023/12/11 06:46:20;;;;;;;;;3.50;2.50;;;;;-146.67;63.61;74272.31;5123993;27;38197;-76
2023/12/11 06:48:45;;;;;;;;;7.50;1.75;;;;;-146.67;63.66;74272.31;5119893;27;38598;-74
2023/12/11 06:51:13;;;;;;;;;4.00;2.00;;;;;-146.67;63.35;74268.31;5121637;27;39685;-75
2023/12/11 06:53:39;;;;;;;;;5.00;3.00;;;;;-146.67;63.80;74268.31;5120806;27;38463;-76
2023/12/11 06:56:05;;;;;;;;;5.50;2.75;;;;;-146.67;63.50;74276.31;5121520;27;38563;-77
2023/12/11 06:58:31;;;;;;;;;3.25;3.00;;;;;-146.67;63.74;74266.34;5121133;27;38015;-76
2023/12/11 07:00:57;;;;;;;;;6.25;3.00;;;;;-146.67;63.81;74260.34;5121746;27;38164;-77
2023/12/11 07:03:23;;;;;;;;;6.75;2.00;;;;;-146.67;63.73;74244.38;5120720;27;38456;-77
2023/12/11 07:05:48;;;;;;;;;5.00;4.00;;;;;-146.67;63.74;74254.34;5120437;27;38395;-76
2023/12/11 07:08:14;;;;;;;;;8.25;6.00;;;;;-146.67;63.41;74262.34;5129692;27;37846;-76
2023/12/11 07:10:39;;;;;;;;;5.25;3.00;;;;;-146.67;63.22;74274.31;5140222;27;40076;-77
2023/12/11 07:13:04;;;;;;;;;3.75;1.75;;;;;-146.67;63.77;74282.31;5134993;27;38498;-77
2023/12/11 07:15:30;;;;;;;;;8.00;5.75;;;;;-146.67;63.20;74304.25;5126611;27;38360;-76
2023/12/11 07:17:56;;;;;;;;;5.00;5.00;;;;;-146.67;63.41;74306.25;5126405;27;38205;-76
2023/12/11 07:20:22;;;;;;;;;4.75;4.50;;;;;-146.67;63.87;74322.22;5143660;27;38416;-76
2023/12/11 07:22:49;;;;;;;;;4.75;2.00;;;;;-146.67;64.01;74304.25;5119672;27;38279;-76
2023/12/11 07:25:14;;;;;;;;;7.25;3.00;;;;;-146.67;63.00;74288.28;5119464;27;38421;-78
2023/12/11 07:27:43;;;;;;;;;3.50;1.25;;;;;-146.67;63.38;74292.28;5121254;27;38311;-78
2023/12/11 07:30:10;;;;;;;;;5.25;3.00;;;;;-146.67;63.32;74290.28;5124697;27;39982;-78
2023/12/11 07:32:35;;;;;;;;;4.25;3.50;;;;;-146.67;62.93;74296.28;5120342;27;38217;-78
2023/12/11 07:35:01;;;;;;;;;10.00;3.00;;;;;-146.67;62.96;74298.28;5117546;27;38305;-78
2023/12/11 07:37:27;;;;;;;;;6.50;3.00;;;;;-146.67;62.98;74306.25;5119173;27;38538;-79
2023/12/11 07:39:52;;;;;;;;;7.75;3.00;;;;;-146.67;62.50;74312.25;5118606;27;39781;-78
2023/12/11 07:42:18;;;;;;;;;7.00;2.00;;;;;-146.67;62.61;74316.25;5119310;27;38798;-78
2023/12/11 07:44:43;;;;;;;;;4.50;2.75;;;;;-146.67;62.41;74318.25;5121190;27;38294;-78
2023/12/11 07:47:09;;;;;;;;;2.25;1.75;;;;;-146.67;62.73;74310.25;5120359;27;39898;-77
2023/12/11 07:49:34;;;;;;;;;4.50;2.00;;;;;-146.67;62.35;74316.25;5126823;27;39890;-78
2023/12/11 07:52:01;;;;;;;;;4.25;1.00;;;;;-146.67;62.47;74320.22;5127735;27;37718;-78
2023/12/11 07:54:27;;;;;;;;;4.75;1.00;;;;;-146.67;62.28;74328.22;5124992;27;38475;-78
2023/12/11 07:56:53;;;;;;;;;5.00;2.25;;;;;-146.67;62.15;74336.19;5120383;27;39681;-78
2023/12/11 07:59:21;;;;;;;;;2.25;2.25;;;;;-146.67;62.08;74338.19;5118025;27;39608;-78
2023/12/11 08:01:47;;;;;;;;;8.00;2.75;;;;;-146.67;61.68;74348.19;5134914;27;38448;-79
2023/12/11 08:04:13;;;;;;;;;1.50;1.50;;;;;-146.67;62.05;74358.16;5137186;27;38228;-78
2023/12/11 08:06:42;;;;;;;;;3.50;1.00;;;;;-146.67;62.08;74364.16;5149965;27;37906;-79
2023/12/11 08:09:09;;;;;;;;;5.00;1.00;;;;;-146.67;62.46;74378.13;5134288;27;37947;-77
2023/12/11 08:11:34;;;;;;;;;4.25;3.00;;;;;-146.67;62.29;74374.13;5139196;27;38239;-76
2023/12/11 08:14:00;;;;;;;;;5.00;2.25;;;;;-146.67;62.27;74378.13;5132151;27;44574;-76
2023/12/11 08:16:25;;;;;;;;;1.50;1.00;;;;;-146.67;62.38;74378.13;5141376;27;44660;-76
2023/12/11 08:18:51;;;;;;;;;2.75;2.75;;;;;-146.67;62.01;74372.13;5142008;27;38295;-76
2023/12/11 08:21:17;;;;;;;;;8.50;2.75;;;;;-146.67;61.30;74390.09;5131560;27;61286;-77
2023/12/11 08:23:50;;;;;;;;;3.25;2.00;;;;;-146.67;62.20;74392.09;5133131;27;37732;-78
2023/12/11 08:26:20;;;;;;;;;2.75;2.00;;;;;-146.67;62.02;74398.09;5155293;27;45297;-78
2023/12/11 08:28:46;;;;;;;;;7.50;1.75;;;;;-146.67;62.23;74402.09;5125555;27;61839;-77
2023/12/11 08:31:12;;;;;;;;;8.00;3.00;;;;;-146.67;61.76;74390.09;5104252;27;61675;-77
2023/12/11 08:33:37;;;;;;;;;7.25;3.00;;;;;-146.67;61.09;74386.13;5120778;27;61869;-77
2023/12/11 08:36:04;;;;;;;;;4.00;1.75;;;;;-146.67;61.57;74400.09;5135568;27;61425;-78
2023/12/11 08:38:29;;;;;;;;;6.00;3.00;;;;;-146.67;61.07;74400.09;5129472;27;61548;-79
2023/12/11 08:40:55;;;;;;;;;7.50;2.25;;;;;-146.67;61.10;74400.09;5137784;27;61188;-79
2023/12/11 08:43:20;;;;;;;;;6.50;2.50;;;;;-146.67;61.38;74404.09;5112255;27;62272;-77
2023/12/11 08:45:45;;;;;;;;;4.50;3.25;;;;;-146.67;60.75;74416.06;5106125;27;61748;-77
2023/12/11 08:48:11;;;;;;;;;3.75;2.00;;;;;-146.67;60.70;74414.06;5104128;27;64517;-77
2023/12/11 08:50:36;;;;;;;;;2.50;2.50;;;;;-146.67;60.94;74422.03;5104700;27;62012;-77
2023/12/11 08:53:03;;;;;;;;;12.25;2.50;;;;;-146.67;61.10;74420.06;5105839;27;61948;-78
2023/12/11 08:55:29;;;;;;;;;4.25;3.25;;;;;-146.67;60.72;74412.06;5104564;27;62162;-77
2023/12/11 08:57:55;;;;;;;;;5.00;2.50;;;;;-146.67;61.07;74416.06;5104748;27;62870;-77
2023/12/11 09:00:21;;;;;;;;;4.50;2.25;;;;;-146.67;60.75;74430.03;5105483;27;61939;-77
2023/12/11 09:02:46;;;;;;;;;2.00;2.00;;;;;-146.67;60.97;74438.03;5105432;27;61797;-77
2023/12/11 09:05:12;;;;;;;;;2.50;2.00;;;;;-146.67;60.86;74446.00;5105679;27;61876;-77
2023/12/11 09:07:37;;;;;;;;;5.50;3.50;;;;;-146.67;60.66;74428.03;5104376;27;61785;-77
2023/12/11 09:10:04;;;;;;;;;3.75;1.00;;;;;-146.67;60.48;74436.03;5104319;27;61792;-77
2023/12/11 09:12:30;;;;;;;;;4.50;1.25;;;;;-146.67;60.65;74442.00;5105388;27;61749;-78
2023/12/11 09:14:55;;;;;;;;;4.00;1.00;;;;;-146.67;60.75;74436.03;5105516;27;61688;-77
2023/12/11 09:17:21;;;;;;;;;7.00;3.00;;;;;-146.67;60.80;74448.00;5103086;27;63592;-77
2023/12/11 09:19:46;;;;;;;;;6.75;4.00;;;;;-146.67;60.94;74456.00;5104537;27;61721;-77
2023/12/11 09:22:13;;;;;;;;;3.00;3.00;;;;;-146.67;61.16;74463.97;5105422;27;61956;-78
2023/12/11 09:24:38;;;;;;;;;2.00;2.00;;;;;-146.67;60.78;74469.97;5104960;27;61860;-78
2023/12/11 09:27:04;;;;;;;;;6.00;3.25;;;;;-146.67;61.05;74469.97;5104692;27;61880;-78
2023/12/11 09:29:29;;;;;;;;;3.00;1.50;;;;;-146.67;61.19;74471.97;5103121;27;61758;-78
2023/12/11 09:31:55;;;;;;;;;2.75;2.50;;;;;-146.67;60.51;74463.97;5105972;27;61750;-78
2023/12/11 09:34:20;;;;;;;;;4.25;3.00;;;;;-146.67;61.14;74463.97;5104216;27;61909;-78
2023/12/11 09:36:46;;;;;;;;;3.75;2.00;;;;;-146.67;60.83;74461.97;5102674;27;63919;-78
2023/12/11 09:39:11;;;;;;;;;4.50;4.00;;;;;-146.67;60.36;74465.97;5104881;27;61971;-77
2023/12/11 09:41:39;;;;;;;;;7.00;2.50;;;;;-146.67;60.50;74463.97;5104783;27;61919;-77
2023/12/11 09:44:05;;;;;;;;;4.25;3.00;;;;;-146.67;60.47;74483.94;5103721;27;62289;-77
2023/12/11 09:46:44;;;;;;;;;2.00;2.00;;;;;-146.67;60.45;74483.94;5102737;27;63567;-77
2023/12/11 09:49:10;;;;;;;;;9.00;2.00;;;;;-146.67;60.24;74493.91;5102958;27;61868;-78
2023/12/11 09:51:36;;;;;;;;;6.00;2.50;;;;;-146.67;60.39;74495.91;5104899;27;61995;-78
2023/12/11 09:54:03;;;;;;;;;6.75;2.25;;;;;-146.67;60.55;74491.94;5103818;27;62176;-78
2023/12/11 09:56:30;;;;;;;;;4.00;2.75;;;;;-146.67;60.45;74507.91;5112389;27;61749;-77
2023/12/11 09:58:56;;;;;;;;;4.25;2.00;;;;;-146.67;60.75;74499.91;5119717;27;61116;-77
2023/12/11 10:01:23;;;;;;;;;5.00;3.00;;;;;-146.67;60.62;74507.91;5116942;27;61738;-77
2023/12/11 10:03:48;;;;;;;;;13.00;4.25;;;;;-146.67;60.27;74511.88;5104754;27;62318;-78
2023/12/11 10:06:14;;;;;;;;;4.25;3.50;;;;;-146.67;60.04;74513.88;5104386;27;62762;-78
2023/12/11 10:08:44;;;;;;;;;12.00;2.50;;;;;-146.67;59.96;74501.91;5104552;27;61894;-78
2023/12/11 10:11:11;;;;;;;;;4.75;2.00;;;;;-146.67;60.10;74515.88;5103664;27;61938;-77
2023/12/11 10:13:37;;;;;;;;;4.50;3.00;;;;;-146.67;60.20;74507.91;5104195;27;61851;-77
2023/12/11 10:16:04;;;;;;;;;2.50;2.50;;;;;-146.67;60.16;74487.94;5103871;27;62096;-77
2023/12/11 10:18:29;;;;;;;;;3.50;2.50;;;;;-146.67;59.59;74485.94;5103751;27;61989;-77
2023/12/11 10:20:57;;;;;;;;;2.75;2.00;;;;;-146.67;59.86;74479.94;5103590;27;61849;-77
2023/12/11 10:23:23;;;;;;;;;6.75;4.50;;;;;-146.67;60.01;74471.97;5104640;27;61814;-77
2023/12/11 10:25:53;;;;;;;;;8.50;6.25;;;;;-146.67;58.91;74469.97;5103621;27;61829;-78
2023/12/11 10:28:22;;;;;;;;;7.50;2.00;;;;;-146.67;59.63;74463.97;5103462;27;61870;-76
2023/12/11 10:30:52;;;;;;;;;2.75;2.00;;;;;-146.67;58.77;74452.00;5104020;27;61984;-77
2023/12/11 10:33:18;;;;;;;;;5.50;2.25;;;;;-146.67;58.91;74454.00;5104449;27;61956;-77
2023/12/11 10:35:45;;;;;;;;;7.25;3.00;;;;;-146.67;58.61;74438.03;5103433;27;62876;-78
2023/12/11 10:38:10;;;;;;;;;2.25;2.00;;;;;-146.67;58.64;74430.03;5103221;27;61880;-77
2023/12/11 10:40:41;;;;;;;;;3.25;2.00;;;;;-146.67;57.93;74428.03;5104039;27;62569;-77
2023/12/11 10:43:07;;;;;;;;;2.00;1.25;;;;;-146.67;58.00;74426.03;5103547;27;62044;-77
2023/12/11 10:45:33;;;;;;;;;4.00;2.25;;;;;-146.67;57.29;74418.06;5102080;27;63742;-77
2023/12/11 10:48:03;;;;;;;;;5.75;3.25;;;;;-146.67;57.34;74414.06;5102223;27;61919;-77
2023/12/11 10:50:30;;;;;;;;;4.00;1.00;;;;;-146.67;57.62;74392.09;5102077;27;62373;-77
2023/12/11 10:52:59;;;;;;;;;7.50;2.50;;;;;-146.67;56.93;74396.09;5104147;27;62044;-77
2023/12/11 10:55:25;;;;;;;;;7.50;3.00;;;;;-146.67;57.23;74378.13;5101896;27;63875;-77
2023/12/11 10:57:51;;;;;;;;;6.50;4.00;;;;;-146.67;56.31;74374.13;5103293;27;61817;-78
2023/12/11 11:00:17;;;;;;;;;5.00;3.00;;;;;-146.67;56.30;74362.16;5103648;27;61980;-77
2023/12/11 11:02:50;;;;;;;;;5.00;3.00;;;;;-146.67;55.95;74356.16;5104002;27;61883;-77
2023/12/11 11:05:17;;;;;;;;;4.00;2.00;;;;;-146.67;55.45;74352.19;5102998;27;61927;-77
2023/12/11 11:08:11;;;;;;;;;9.25;3.00;;;;;-146.67;56.17;74342.19;5103647;27;61943;-77
2023/12/11 11:10:46;;;;;;;;;8.00;1.50;;;;;-146.67;55.11;74332.22;5102228;27;61837;-77
2023/12/11 11:13:20;;;;;;;;;4.00;2.25;;;;;-146.67;55.13;74320.22;5103137;27;62241;-77